Weather observations for the past three days for
Buffalo
Metric (Imperial)
Date Time (mdt) Wind (kph) Vis. (km) Weather Sky Cond. Temperature (ºC) Relative Humidity Wind Chill (°C) Heat Index (°C) Pressure Precipitation (cm)
Air Dwpt 6 hour altimeter (cm) sea level (mb) 1 hr 3 hr 6 hr
Max. Min.
02 10:56 W 37 G 50 0.00 Breezy NULL 21.1 -0.6 23% 76 1012.8
02 09:56 W 35 0.00 Breezy NULL 18.9 0.6 29% 76.02 1013.1
02 08:56 W 30 G 41 0.00 NULL NULL 15.6 -0.6 33% 76.05 1014.0
02 07:56 W 33 0.00 Breezy NULL 11.1 -1.1 43% 76.1 1014.6
02 06:56 Calm 0.00 NULL NULL 5 -2.8 57% 76.15 1015.9
02 05:56 NE 6 0.00 NULL NULL 1.7 -3.9 6.1 1.7 67% 76.17 1016.6
02 04:56 SW 7 0.00 NULL NULL 2.8 -3.3 65% 1 76.2 1016.7
02 03:56 SW 11 0.00 NULL NULL 3.3 -3.3 62% 1 76.25 1017.3
02 02:56 S 20 0.00 NULL NULL 3.9 -3.3 60% 0 76.28 1017.7
02 01:56 S 17 0.00 NULL NULL 4.4 -3.3 58% 1 76.35 1018.7
02 00:56 S 20 0.00 NULL NULL 5 -2.8 57% 1 76.38 1019.1
01 23:56 S 19 0.00 NULL NULL 5 -2.8 14.4 4.4 57% 2 76.4 1019.5
01 22:56 S 17 0.00 NULL NULL 5 -2.8 57% 2 76.43 1019.9
01 21:56 SE 15 0.00 NULL NULL 6.1 -2.8 53% 3 76.45 1020.1
01 20:56 SE 15 0.00 NULL NULL 8.3 -3.3 44% 6 76.43 1020.0
01 19:56 E 9 0.00 NULL NULL 11.7 -5 31% 76.4 1019.8
01 18:56 E 9 0.00 NULL NULL 13.9 -5 27% 76.4 1019.8
01 17:56 E 9 0.00 NULL NULL 14.4 -6.1 15.6 12.2 24% 76.4 1019.9
01 16:56 Vrbl 6 0.00 NULL NULL 14.4 -5.6 25% 76.4 1019.5
01 15:56 NE 15 0.00 NULL NULL 15 -5.6 24% 76.43 1019.8
01 14:56 Vrbl 6 0.00 NULL NULL 15 -4.4 26% 76.43 1020.0
01 13:56 Vrbl 9 0.00 NULL NULL 14.4 -3.9 28% 76.45 1020.1
01 12:56 NE 19 G 30 0.00 NULL NULL 13.3 -4.4 29% 76.45 1020.5
01 11:56 NE 13 0.00 NULL NULL 12.8 -5.6 13.3 -0.6 28% 76.48 1020.4
01 10:56 Vrbl 7 0.00 NULL NULL 11.7 -3.9 34% 76.45 1020.6
01 09:56 E 13 0.00 NULL NULL 10 -3.3 39% 8 76.45 1020.3
01 08:56 SE 9 0.00 NULL NULL 7.2 -1.7 54% 6 76.45 1020.6
01 07:56 Vrbl 9 0.00 NULL NULL 3.9 -2.2 65% 2 76.45 1020.7
01 06:56 S 9 0.00 NULL NULL 1.1 -3.3 73% -1 76.4 1019.9
01 05:56 S 9 0.00 NULL NULL 0 -4.4 4.4 0 73% -3 76.4 1019.8
01 04:56 SE 7 0.00 NULL NULL 1.1 -5 64% -1 76.4 1019.8
01 03:56 E 17 0.00 NULL NULL 1.7 -5 61% -2 76.4 1019.6
01 02:56 E 15 0.00 NULL NULL 1.1 -4.4 67% -3 76.4 1020.0
01 01:56 SE 9 0.00 NULL NULL 1.7 -4.4 64% -1 76.43 1020.2
01 00:56 S 11 0.00 NULL NULL 2.2 -5.6 57% -1 76.43 1020.4
30 23:56 S 7 0.00 NULL NULL 5 -6.1 12.8 2.8 45% 4 76.45 1020.2
30 22:56 SW 7 0.00 NULL NULL 2.8 -4.4 59% 1 76.43 1020.6
30 21:56 NE 11 0.00 NULL NULL 5.6 -7.2 40% 3 76.43 1020.1
30 20:56 NE 17 0.00 NULL NULL 6.1 -6.1 42% 3 76.43 1020.2
30 19:56 N 17 0.00 NULL NULL 8.3 -5.6 37% 6 76.4 1020.1
30 18:56 N 20 0.00 NULL NULL 11.7 -5 31% 76.38 1020.1
30 17:56 N 28 0.00 NULL NULL 12.8 -6.1 13.9 10.6 26% 76.38 1020.1
30 16:56 N 35 G 46 0.00 Breezy NULL 12.8 -6.1 26% 76.38 1019.9
30 15:56 N 39 G 54 0.00 Breezy NULL 13.3 -5.6 27% 76.38 1019.7
30 14:56 N 30 G 46 0.00 NULL NULL 12.2 -7.2 25% 76.4 1020.2
30 13:56 NW 31 G 46 0.00 NULL NULL 11.7 -7.2 26% 76.43 1020.7
30 12:56 NW 35 G 50 0.00 Breezy NULL 11.7 -6.1 28% 76.45 1020.8
30 11:56 NW 33 G 54 0.00 Breezy NULL 10 -7.8 11.7 -3.9 28% 7 76.5 1021.6
30 10:56 NW 28 G 43 0.00 NULL NULL 9.4 -6.7 32% 6 76.53 1021.9
30 09:56 NW 24 G 37 0.00 NULL NULL 10 -6.1 32% 7 76.56 1022.0
30 08:56 NW 30 0.00 NULL NULL 8.3 -4.4 41% 5 76.58 1022.3
30 07:56 W 13 0.00 NULL NULL 2.2 -3.9 64% -1 76.61 1023.3
30 06:56 SW 6 0.00 NULL NULL -2.2 -5.6 78% 76.61 1023.5
30 05:56 SW 9 0.00 NULL NULL -3.3 -6.1 1.1 -3.9 81% -7 76.63 1023.6
30 04:56 W 11 0.00 NULL NULL -1.7 -7.2 66% -5 76.66 1023.7
30 03:56 W 11 0.00 NULL NULL -1.1 -7.8 61% -5 76.66 1023.5
30 02:56 W 11 0.00 NULL NULL -1.1 -7.2 64% -5 76.66 1023.5
30 01:56 W 7 0.00 NULL NULL -2.2 -7.2 69% -5 76.66 1024.0
30 00:56 Calm 0.00 NULL NULL 0.6 -7.2 56% 76.68 1023.9
29 23:56 NE 17 0.00 NULL NULL 1.1 -7.2 10.6 1.1 54% -3 76.68 1023.6
29 22:56 N 17 0.00 NULL NULL 2.2 -7.2 50% -2 76.66 1023.3
29 21:56 N 19 0.00 NULL NULL 3.3 -7.2 46% -1 76.66 1023.3
29 20:56 N 24 0.00 NULL NULL 4.4 -6.7 45% 0 76.61 1022.7
29 19:56 N 24 0.00 NULL NULL 6.1 -5.6 43% 2 76.53 1021.8
29 18:56 N 31 G 48 0.00 NULL NULL 8.9 -6.1 34% 5 76.45 1020.7
29 17:56 N 24 G 41 0.00 NULL NULL 10.6 -5.6 13.3 10 32% 76.43 1020.2
29 16:56 N 43 G 52 0.00 Windy NULL 11.7 -4.4 32% 76.4 1020.0
29 15:56 N 30 G 56 0.00 NULL NULL 11.7 -3.9 34% 76.35 1019.5
29 14:56 N 46 G 56 0.00 Windy NULL 13.3 -2.2 34% 76.33 1018.8
29 13:56 N 26 G 59 0.00 NULL NULL 11.7 1.1 48% 76.33 1018.8
29 12:56 NW 37 G 61 0.00 Breezy NULL 12.2 -2.8 35% 76.28 1018.3
29 11:56 NW 35 G 56 0.00 Breezy NULL 12.2 0 12.8 2.2 43% 76.3 1018.3
Date Time (mdt) Wind (kph) Vis. (km) Weather Sky Cond. Air Dwpt Max. Min. Relative Humidity Wind Chill (°C) Heat Index (°C) altimeter (cm) sea level (mb) 1 hr 3 hr 6 hr
6 hour
Temperature (ºC) Pressure Precipitation (cm)